Time;durP1;ratioP1;P1;durP2;ratioP2;P2;SDS_P1;SDS_P2;PMS_P1;PMS_P2;Temp;Humidity;BMP_temperature;BMP_pressure;BME280_temperature;BME280_humidity;BME280_pressure;Samples;Min_cycle;Max_cycle;Signal;HPM_P1;HPM_P2
2021/12/10 00:01:49;;;;;;;12.77;8.23;;;28.00;86.10;;;;;;5047673;28;20294;-49
2021/12/10 00:04:19;;;;;;;17.10;7.60;;;28.00;86.00;;;;;;5047471;28;20018;-50
2021/12/10 00:06:52;;;;;;;14.80;7.97;;;28.00;85.90;;;;;;5047364;28;20029;-50
2021/12/10 00:09:25;;;;;;;13.35;7.70;;;28.00;85.90;;;;;;5047275;28;20029;-45
2021/12/10 00:12:03;;;;;;;13.65;8.00;;;28.00;85.80;;;;;;5047332;28;20245;-46
2021/12/10 00:14:32;;;;;;;14.63;7.38;;;27.90;85.70;;;;;;5047628;28;20038;-52
2021/12/10 00:17:07;;;;;;;14.38;7.82;;;27.90;85.70;;;;;;5047329;28;20143;-52
2021/12/10 00:19:45;;;;;;;16.02;7.97;;;27.90;85.60;;;;;;5047425;28;20060;-51
2021/12/10 00:22:37;;;;;;;15.55;7.80;;;27.90;85.50;;;;;;5046962;28;20021;-48
2021/12/10 00:25:08;;;;;;;11.18;7.75;;;27.90;85.60;;;;;;5046376;28;20067;-50
2021/12/10 00:27:35;;;;;;;15.50;7.95;;;27.90;85.50;;;;;;5045930;28;20310;-55
2021/12/10 00:30:25;;;;;;;40.28;31.48;;;27.80;85.40;;;;;;5047326;28;20183;-55
2021/12/10 00:33:20;;;;;;;30.42;25.55;;;27.90;85.40;;;;;;5046791;28;20021;-53
2021/12/10 00:35:49;;;;;;;23.88;16.08;;;27.80;85.30;;;;;;5045813;28;20056;-49
2021/12/10 00:38:16;;;;;;;22.33;12.68;;;27.80;85.40;;;;;;5047030;28;20270;-51
2021/12/10 00:40:44;;;;;;;16.77;12.00;;;27.80;85.40;;;;;;5047503;28;20029;-50
2021/12/10 00:43:20;;;;;;;;;;;;;;;;;;;;;
2021/12/10 00:45:51;;;;;;;19.50;10.20;;;27.80;85.20;;;;;;5046376;28;20041;-48
2021/12/10 00:48:19;;;;;;;14.90;9.63;;;27.80;85.30;;;;;;5045787;28;20033;-47
2021/12/10 00:50:52;;;;;;;25.98;17.02;;;27.80;85.50;;;;;;5046750;28;20204;-51
2021/12/10 00:53:19;;;;;;;25.00;15.57;;;27.80;85.50;;;;;;5045510;28;20083;-52
2021/12/10 00:55:49;;;;;;;20.75;12.77;;;27.80;85.40;;;;;;5046705;28;20265;-47
2021/12/10 00:58:29;;;;;;;20.17;11.55;;;27.80;85.40;;;;;;5046804;28;20021;-48
2021/12/10 01:01:05;;;;;;;19.15;11.18;;;27.70;85.50;;;;;;5046854;28;20021;-53
2021/12/10 01:03:42;;;;;;;20.13;12.55;;;27.70;85.30;;;;;;5046652;28;20021;-50
2021/12/10 01:06:11;;;;;;;27.63;15.30;;;27.70;85.30;;;;;;5045759;28;20036;-51
2021/12/10 01:08:43;;;;;;;25.45;15.27;;;27.70;85.30;;;;;;5045068;28;20025;-46
2021/12/10 01:11:14;;;;;;;;;;;27.70;85.40;;;;;;5046546;28;20047;-49
2021/12/10 01:13:57;;;;;;;16.85;12.43;;;27.70;85.30;;;;;;5046674;28;19909;-45
2021/12/10 01:25:12;;;;;;;13.70;11.75;;;27.60;85.70;;;;;;5046024;28;20064;-52
2021/12/10 01:27:43;;;;;;;18.08;14.65;;;27.60;85.80;;;;;;5045195;28;20018;-55
2021/12/10 01:30:18;;;;;;;26.58;15.50;;;27.60;85.70;;;;;;5045595;28;20083;-51
2021/12/10 01:32:55;;;;;;;28.85;16.77;;;27.60;85.70;;;;;;5043347;28;20017;-50
2021/12/10 01:35:28;;;;;;;27.73;16.63;;;27.50;85.40;;;;;;5044160;28;20044;-58
2021/12/10 01:38:04;;;;;;;20.25;13.55;;;27.50;85.40;;;;;;5044032;28;20017;-57
2021/12/10 01:40:35;;;;;;;19.98;12.40;;;27.60;85.60;;;;;;5045124;28;20075;-47
2021/12/10 01:43:11;;;;;;;16.30;10.75;;;27.60;85.40;;;;;;5040873;28;20025;-47
2021/12/10 01:45:48;;;;;;;15.10;11.15;;;27.60;85.40;;;;;;5037483;28;20068;-49
2021/12/10 01:48:23;;;;;;;14.70;9.18;;;27.50;85.30;;;;;;5025913;28;20021;-48
2021/12/10 01:50:52;;;;;;;12.90;8.48;;;27.60;85.10;;;;;;5025661;28;20038;-48
2021/12/10 01:53:25;;;;;;;31.55;28.02;;;27.60;85.00;;;;;;5025495;28;20030;-48
2021/12/10 01:55:55;;;;;;;27.52;21.17;;;27.50;84.90;;;;;;5025995;28;20109;-54
2021/12/10 01:58:24;;;;;;;28.73;23.05;;;27.50;84.90;;;;;;5025632;28;20206;-57
2021/12/10 02:01:31;;;;;;;14.73;12.15;;;27.50;84.70;;;;;;5026016;28;20032;-43
2021/12/10 02:04:01;;;;;;;13.85;8.35;;;27.50;84.40;;;;;;5017533;28;20053;-47
2021/12/10 02:06:31;;;;;;;12.95;7.55;;;27.40;84.30;;;;;;5033472;28;20026;-46
2021/12/10 02:08:58;;;;;;;9.60;7.22;;;27.50;84.20;;;;;;5026112;28;20034;-51
2021/12/10 02:11:25;;;;;;;13.50;7.93;;;27.50;84.10;;;;;;5035172;28;20044;-49
2021/12/10 02:13:52;;;;;;;17.52;7.55;;;27.50;84.10;;;;;;5033779;28;20034;-48
2021/12/10 02:16:19;;;;;;;15.85;7.82;;;27.50;84.10;;;;;;5044987;28;20306;-48
2021/12/10 02:18:46;;;;;;;12.80;7.45;;;27.40;84.00;;;;;;5045603;28;20067;-50
2021/12/10 02:21:13;;;;;;;13.93;7.00;;;27.40;83.90;;;;;;5045105;28;20017;-49
2021/12/10 02:23:54;;;;;;;11.80;7.38;;;27.30;83.70;;;;;;5044822;28;20025;-49
2021/12/10 02:26:24;;;;;;;12.30;7.57;;;27.30;83.80;;;;;;5045606;28;20025;-53
2021/12/10 02:28:51;;;;;;;11.52;6.78;;;27.40;83.90;;;;;;5043775;28;20092;-52
2021/12/10 02:31:17;;;;;;;10.95;6.78;;;27.30;83.80;;;;;;5045047;28;20075;-52
2021/12/10 02:33:44;;;;;;;9.68;6.57;;;27.30;83.70;;;;;;5043782;28;20048;-46
2021/12/10 02:36:12;;;;;;;14.40;7.05;;;27.30;83.70;;;;;;5044800;28;20029;-48
2021/12/10 02:38:56;;;;;;;11.90;7.03;;;27.30;83.70;;;;;;5037094;28;20049;-53
2021/12/10 02:41:32;;;;;;;12.93;7.20;;;27.30;83.60;;;;;;5024686;28;20032;-45
2021/12/10 02:44:00;;;;;;;13.93;6.90;;;27.20;83.60;;;;;;5024802;28;20021;-47
2021/12/10 02:46:28;;;;;;;16.00;7.20;;;27.20;83.90;;;;;;5023759;28;20030;-49
2021/12/10 02:48:55;;;;;;;11.18;6.53;;;27.20;83.70;;;;;;5024575;28;20018;-49
2021/12/10 02:51:22;;;;;;;11.23;7.10;;;27.10;83.50;;;;;;5023354;28;20038;-46
2021/12/10 02:53:49;;;;;;;10.80;6.65;;;27.10;83.30;;;;;;5007020;28;20056;-52
2021/12/10 02:56:22;;;;;;;9.35;6.45;;;27.10;83.40;;;;;;5030165;28;20029;-50
2021/12/10 02:58:53;;;;;;;15.02;7.88;;;27.10;83.50;;;;;;5024614;28;20018;-49
2021/12/10 03:01:35;;;;;;;9.77;6.80;;;27.20;83.60;;;;;;5037274;28;20049;-49
2021/12/10 03:04:02;;;;;;;9.85;6.75;;;27.10;83.20;;;;;;5038626;28;20025;-47
2021/12/10 03:06:29;;;;;;;10.40;6.63;;;27.10;83.20;;;;;;5026121;28;20044;-48
2021/12/10 03:08:57;;;;;;;11.13;6.55;;;27.10;83.10;;;;;;5023383;28;20028;-45
2021/12/10 03:11:28;;;;;;;14.57;7.15;;;27.10;83.10;;;;;;5024919;28;20049;-47
2021/12/10 03:14:09;;;;;;;8.57;6.00;;;27.10;83.10;;;;;;5024230;28;20014;-52
2021/12/10 03:16:38;;;;;;;9.27;6.53;;;27.10;83.10;;;;;;5024703;28;20038;-48
2021/12/10 03:19:05;;;;;;;10.10;6.30;;;27.20;83.20;;;;;;5023069;28;20037;-48
2021/12/10 03:21:39;;;;;;;10.07;6.53;;;27.10;83.10;;;;;;5024404;28;20293;-50
2021/12/10 03:24:07;;;;;;;11.82;6.45;;;27.20;83.20;;;;;;5035769;28;20333;-47
2021/12/10 03:26:34;;;;;;;12.10;6.80;;;27.20;83.10;;;;;;5037488;28;20245;-52
2021/12/10 03:29:01;;;;;;;8.73;6.32;;;27.20;83.10;;;;;;5030004;28;20030;-45
2021/12/10 03:31:28;;;;;;;10.63;6.53;;;27.10;83.00;;;;;;5038879;28;20026;-53
2021/12/10 03:33:56;;;;;;;9.93;6.55;;;27.10;83.50;;;;;;5043500;28;20014;-51
2021/12/10 03:36:23;;;;;;;12.85;6.55;;;27.10;82.90;;;;;;5035442;28;20037;-47
2021/12/10 03:38:50;;;;;;;14.40;6.75;;;27.10;83.00;;;;;;5023945;28;20326;-45
2021/12/10 03:41:17;;;;;;;11.15;6.53;;;27.10;82.90;;;;;;5023832;28;20034;-48
2021/12/10 03:43:46;;;;;;;9.98;6.20;;;27.10;82.80;;;;;;5023927;28;20014;-48
2021/12/10 03:46:15;;;;;;;11.38;6.57;;;27.10;82.80;;;;;;5024102;28;20033;-49
2021/12/10 03:48:45;;;;;;;10.35;6.00;;;27.10;82.80;;;;;;5041063;28;20206;-47
2021/12/10 03:51:19;;;;;;;10.45;6.40;;;27.10;82.80;;;;;;5034748;28;20334;-48
2021/12/10 03:53:46;;;;;;;12.10;6.63;;;27.10;82.80;;;;;;5040131;28;20026;-53
2021/12/10 03:56:16;;;;;;;9.43;6.20;;;27.10;82.70;;;;;;5043940;28;20021;-53
2021/12/10 03:58:44;;;;;;;12.30;6.45;;;27.10;82.70;;;;;;5041345;28;20049;-45
2021/12/10 04:01:13;;;;;;;10.15;8.18;;;27.10;82.90;;;;;;5033794;28;20041;-44
2021/12/10 04:03:41;;;;;;;10.50;6.68;;;27.10;82.80;;;;;;5041922;28;20037;-45
2021/12/10 04:06:08;;;;;;;9.68;6.32;;;27.10;82.70;;;;;;5040900;28;20034;-46
2021/12/10 04:08:35;;;;;;;11.85;6.55;;;27.10;82.70;;;;;;5036793;28;20018;-48
2021/12/10 04:11:15;;;;;;;10.50;6.70;;;27.20;82.70;;;;;;5033664;28;20093;-47
2021/12/10 04:13:44;;;;;;;12.07;6.97;;;27.10;82.50;;;;;;5057234;28;20025;-50
2021/12/10 04:16:11;;;;;;;13.05;6.57;;;27.10;83.00;;;;;;5039293;28;20037;-53
2021/12/10 04:18:38;;;;;;;10.00;6.20;;;27.10;82.60;;;;;;5035680;28;20021;-50
2021/12/10 04:21:09;;;;;;;9.32;6.60;;;27.10;82.80;;;;;;5025466;28;20243;-55
2021/12/10 04:23:36;;;;;;;10.68;6.05;;;27.20;83.10;;;;;;5023542;28;20040;-50
2021/12/10 04:26:04;;;;;;;10.13;6.55;;;27.20;83.20;;;;;;5023722;28;20293;-49
2021/12/10 04:28:32;;;;;;;8.57;6.20;;;27.20;83.00;;;;;;5023487;28;20198;-49
2021/12/10 04:30:59;;;;;;;9.05;6.28;;;27.20;83.00;;;;;;5038712;28;20337;-50
2021/12/10 04:33:26;;;;;;;9.93;6.10;;;27.20;83.00;;;;;;5023487;28;20029;-48
2021/12/10 04:35:55;;;;;;;7.78;5.78;;;27.20;83.10;;;;;;5023244;28;20034;-49
2021/12/10 04:38:23;;;;;;;13.98;5.93;;;27.20;83.20;;;;;;5022048;28;20033;-47
2021/12/10 04:40:53;;;;;;;9.75;6.22;;;27.20;83.60;;;;;;5024212;28;20029;-48
2021/12/10 04:43:22;;;;;;;13.07;6.80;;;27.10;83.60;;;;;;5026984;28;20364;-54
2021/12/10 04:45:51;;;;;;;12.85;6.47;;;27.10;83.70;;;;;;5026884;28;20026;-48
2021/12/10 04:48:18;;;;;;;13.90;6.88;;;27.20;84.00;;;;;;5026615;28;20017;-49
2021/12/10 04:50:45;;;;;;;10.13;6.43;;;27.10;84.10;;;;;;5025421;28;20242;-48
2021/12/10 04:53:12;;;;;;;12.48;6.15;;;27.10;84.10;;;;;;5026457;28;20020;-46
2021/12/10 04:55:40;;;;;;;12.10;6.82;;;27.10;84.10;;;;;;5026847;28;20030;-46
2021/12/10 04:58:07;;;;;;;10.65;6.28;;;27.10;84.10;;;;;;5029371;28;20017;-49
2021/12/10 05:00:47;;;;;;;10.55;6.45;;;27.10;84.10;;;;;;5039413;28;20022;-48
2021/12/10 05:03:14;;;;;;;10.65;5.85;;;27.10;84.20;;;;;;5038622;28;20060;-47
2021/12/10 05:05:42;;;;;;;8.60;6.47;;;27.10;84.10;;;;;;5046359;28;20029;-51
2021/12/10 05:08:09;;;;;;;8.70;5.88;;;27.10;84.00;;;;;;5046138;28;20025;-48
2021/12/10 05:10:37;;;;;;;12.77;6.22;;;27.10;83.90;;;;;;5046386;28;20032;-47
2021/12/10 05:13:04;;;;;;;11.25;6.45;;;27.10;83.90;;;;;;5045927;28;20041;-49
2021/12/10 05:15:33;;;;;;;9.80;6.20;;;27.10;83.80;;;;;;5046148;28;20037;-48
2021/12/10 05:18:00;;;;;;;8.25;5.93;;;27.10;83.70;;;;;;5045890;28;20209;-48
2021/12/10 05:20:33;;;;;;;16.38;6.20;;;27.10;83.60;;;;;;5045722;28;20055;-51
2021/12/10 05:23:00;;;;;;;7.68;5.90;;;27.10;83.50;;;;;;5045960;28;20047;-54
2021/12/10 05:25:29;;;;;;;8.25;5.88;;;27.10;83.60;;;;;;5045982;28;20037;-48
2021/12/10 05:27:58;;;;;;;8.30;5.82;;;27.10;83.40;;;;;;5045676;28;20084;-51
2021/12/10 05:30:29;;;;;;;9.68;5.85;;;27.10;83.10;;;;;;5045899;28;20132;-50
2021/12/10 05:32:56;;;;;;;8.40;5.80;;;27.00;83.00;;;;;;5045694;28;20214;-47
2021/12/10 05:35:23;;;;;;;8.75;5.53;;;27.00;82.90;;;;;;5045684;28;20104;-53
2021/12/10 05:37:50;;;;;;;9.40;5.72;;;27.00;82.80;;;;;;5045502;28;20067;-52
2021/12/10 05:40:17;;;;;;;8.05;5.43;;;27.00;82.90;;;;;;5045896;28;20313;-52
2021/12/10 05:42:45;;;;;;;9.98;5.30;;;27.00;83.00;;;;;;5045502;28;20025;-44
2021/12/10 05:45:13;;;;;;;9.32;5.90;;;27.00;83.00;;;;;;5045504;28;20033;-48
2021/12/10 05:47:40;;;;;;;8.82;6.40;;;27.00;83.00;;;;;;5045399;28;20184;-48
2021/12/10 05:50:09;;;;;;;11.40;5.68;;;27.00;83.00;;;;;;5045149;28;20037;-49
2021/12/10 05:52:36;;;;;;;8.70;5.70;;;27.00;82.90;;;;;;5044948;28;20013;-54
2021/12/10 05:55:03;;;;;;;7.93;5.80;;;27.00;83.00;;;;;;5045303;28;20233;-53
2021/12/10 05:57:30;;;;;;;7.40;5.47;;;27.00;82.90;;;;;;5045139;28;20025;-46
2021/12/10 05:59:56;;;;;;;8.77;5.68;;;27.00;82.80;;;;;;5045220;28;20030;-47
2021/12/10 06:02:23;;;;;;;12.05;5.80;;;27.00;83.00;;;;;;5045187;28;20021;-48
2021/12/10 06:04:49;;;;;;;8.52;5.40;;;26.90;82.60;;;;;;5044963;28;20033;-49
2021/12/10 06:07:16;;;;;;;10.45;5.53;;;27.00;82.60;;;;;;5045244;28;20029;-47
2021/12/10 06:09:43;;;;;;;7.68;5.35;;;27.00;82.60;;;;;;5044991;28;20060;-48
2021/12/10 06:12:10;;;;;;;12.38;5.68;;;26.90;82.30;;;;;;5044147;28;20021;-47
2021/12/10 06:14:37;;;;;;;8.13;5.75;;;27.00;82.30;;;;;;5044876;28;20088;-48
2021/12/10 06:17:04;;;;;;;8.13;5.28;;;26.90;82.10;;;;;;5044822;28;20360;-47
2021/12/10 06:19:31;;;;;;;11.10;5.60;;;26.90;82.00;;;;;;5044672;28;20025;-55
2021/12/10 06:21:58;;;;;;;8.20;5.38;;;26.90;82.20;;;;;;5044764;28;20018;-49
2021/12/10 06:24:24;;;;;;;7.63;5.20;;;26.90;82.20;;;;;;5044746;28;20191;-53
2021/12/10 06:26:52;;;;;;;8.23;5.53;;;26.90;82.20;;;;;;5044468;28;20068;-53
2021/12/10 06:29:23;;;;;;;8.10;5.32;;;26.90;82.10;;;;;;5044620;28;20187;-46
2021/12/10 06:31:50;;;;;;;10.23;5.43;;;26.90;82.10;;;;;;5044581;28;20064;-52
2021/12/10 06:34:16;;;;;;;10.02;5.38;;;26.90;82.10;;;;;;5043844;28;20021;-48
2021/12/10 06:36:43;;;;;;;9.38;5.40;;;26.90;82.00;;;;;;5045002;28;20034;-49
2021/12/10 06:39:10;;;;;;;7.28;5.57;;;26.90;82.30;;;;;;5044745;28;20124;-47
2021/12/10 06:41:37;;;;;;;7.40;5.38;;;26.80;81.70;;;;;;5044846;28;20056;-52
2021/12/10 06:44:04;;;;;;;9.38;5.25;;;26.90;81.70;;;;;;5044275;28;20029;-47
2021/12/10 06:46:33;;;;;;;8.82;5.32;;;26.80;81.40;;;;;;5044782;28;20036;-45
2021/12/10 06:48:59;;;;;;;5.30;4.70;;;26.90;81.50;;;;;;5044058;28;20018;-46
2021/12/10 06:51:26;;;;;;;9.45;5.72;;;26.80;81.50;;;;;;5044153;28;20345;-44
2021/12/10 06:53:53;;;;;;;7.95;5.03;;;26.80;81.70;;;;;;5044361;28;20072;-47
2021/12/10 06:56:25;;;;;;;7.57;5.28;;;26.90;81.80;;;;;;5044419;28;20306;-48
2021/12/10 06:58:52;;;;;;;8.65;5.20;;;26.80;81.80;;;;;;5044399;28;20041;-50
2021/12/10 07:01:23;;;;;;;10.80;4.97;;;26.80;82.30;;;;;;5043850;28;20037;-44
2021/12/10 07:03:52;;;;;;;6.53;5.03;;;26.80;82.40;;;;;;5043169;28;20221;-45
2021/12/10 07:06:19;;;;;;;9.45;5.63;;;26.80;82.60;;;;;;5043881;28;20029;-50
2021/12/10 07:08:48;;;;;;;8.32;5.13;;;26.80;82.70;;;;;;5044104;28;20088;-49
2021/12/10 07:11:17;;;;;;;7.60;5.47;;;26.80;83.00;;;;;;5044210;28;20056;-45
2021/12/10 07:13:46;;;;;;;10.65;5.70;;;26.80;83.10;;;;;;5043899;28;20044;-44
2021/12/10 07:16:13;;;;;;;9.90;5.05;;;26.70;82.80;;;;;;5044211;28;20333;-51
2021/12/10 07:18:40;;;;;;;11.07;5.68;;;26.80;82.90;;;;;;5043905;28;20044;-51
2021/12/10 07:21:08;;;;;;;9.80;5.40;;;26.80;83.10;;;;;;5044270;28;20334;-49
2021/12/10 07:23:37;;;;;;;5.93;4.53;;;26.70;82.90;;;;;;5043664;28;20036;-50
2021/12/10 07:26:05;;;;;;;8.00;5.35;;;26.70;83.00;;;;;;5044007;28;20045;-49
2021/12/10 07:28:32;;;;;;;7.03;5.05;;;26.80;83.20;;;;;;5043899;28;20083;-46
2021/12/10 07:31:00;;;;;;;10.60;5.65;;;26.70;83.40;;;;;;5043858;28;20025;-48
2021/12/10 07:33:26;;;;;;;9.38;5.20;;;26.70;83.20;;;;;;5043659;28;20368;-47
2021/12/10 07:35:53;;;;;;;7.90;5.25;;;26.70;83.30;;;;;;5043949;28;20045;-48
2021/12/10 07:38:20;;;;;;;6.95;5.43;;;26.70;83.20;;;;;;5043466;28;20021;-49
2021/12/10 07:40:48;;;;;;;9.50;5.10;;;26.70;83.20;;;;;;5043926;28;20037;-47
2021/12/10 07:43:16;;;;;;;8.50;5.00;;;26.70;83.50;;;;;;5043581;28;20140;-51
2021/12/10 07:45:46;;;;;;;6.00;4.82;;;26.70;83.60;;;;;;5043630;28;20306;-49
2021/12/10 07:48:17;;;;;;;8.15;5.15;;;26.70;83.70;;;;;;5043453;28;20021;-48
2021/12/10 07:50:57;;;;;;;9.40;5.45;;;26.70;83.70;;;;;;5043406;28;20086;-47
2021/12/10 07:53:26;;;;;;;9.27;5.60;;;26.70;83.70;;;;;;5043840;28;20022;-48
2021/12/10 07:55:53;;;;;;;8.02;5.30;;;26.70;83.80;;;;;;5043763;28;20025;-51
2021/12/10 07:58:20;;;;;;;11.43;5.63;;;26.70;83.80;;;;;;5043364;28;20018;-49
2021/12/10 08:00:47;;;;;;;8.30;5.75;;;26.60;84.00;;;;;;5043798;28;20033;-55
2021/12/10 08:03:15;;;;;;;9.10;5.82;;;26.60;84.10;;;;;;5043412;28;20025;-46
2021/12/10 08:05:43;;;;;;;12.13;5.38;;;26.60;84.30;;;;;;5043469;28;20052;-47
2021/12/10 08:08:10;;;;;;;14.30;6.00;;;26.60;84.90;;;;;;5043506;28;20210;-52
2021/12/10 08:10:39;;;;;;;9.98;5.75;;;26.60;84.60;;;;;;5043777;28;20200;-53
2021/12/10 08:13:06;;;;;;;7.78;5.68;;;26.60;84.70;;;;;;5043164;28;20018;-53
2021/12/10 08:15:34;;;;;;;10.60;5.53;;;26.60;84.50;;;;;;5045416;28;20097;-56
2021/12/10 08:18:01;;;;;;;12.10;6.60;;;26.60;84.40;;;;;;5047107;28;20024;-55
2021/12/10 08:20:29;;;;;;;9.55;5.57;;;26.60;84.50;;;;;;5047149;28;20088;-55
2021/12/10 08:22:56;;;;;;;7.18;5.22;;;26.60;84.40;;;;;;5047058;28;20060;-55
2021/12/10 08:25:26;;;;;;;11.70;5.75;;;26.60;84.50;;;;;;5047158;28;20233;-54
2021/12/10 08:27:55;;;;;;;8.27;5.32;;;26.60;84.60;;;;;;5046799;28;20063;-48
2021/12/10 08:30:24;;;;;;;10.38;5.82;;;26.60;84.50;;;;;;5046217;28;20030;-55
2021/12/10 08:32:54;;;;;;;9.93;5.35;;;26.60;84.40;;;;;;5046847;28;20032;-47
2021/12/10 08:35:24;;;;;;;9.65;5.63;;;26.60;84.40;;;;;;5046558;28;20037;-52
2021/12/10 08:37:53;;;;;;;10.35;5.25;;;26.60;84.30;;;;;;5046942;28;20021;-54
2021/12/10 08:40:23;;;;;;;10.32;5.25;;;26.60;84.60;;;;;;5046974;28;20033;-55
2021/12/10 08:42:51;;;;;;;10.63;5.70;;;26.60;84.80;;;;;;5046760;28;20233;-55
2021/12/10 08:45:19;;;;;;;9.73;5.13;;;26.60;84.80;;;;;;5046672;28;20033;-44
2021/12/10 08:47:47;;;;;;;7.10;5.18;;;26.60;84.80;;;;;;5046682;28;20084;-45
2021/12/10 08:50:18;;;;;;;6.85;5.20;;;26.60;84.70;;;;;;5046444;28;20056;-48
2021/12/10 08:52:44;;;;;;;10.20;5.80;;;26.60;84.80;;;;;;5046592;28;20022;-48
2021/12/10 08:55:11;;;;;;;8.10;5.90;;;26.60;84.70;;;;;;5046513;28;20171;-51
2021/12/10 08:57:38;;;;;;;10.38;5.70;;;26.60;84.80;;;;;;5045263;28;20089;-54
2021/12/10 09:00:07;;;;;;;8.70;5.13;;;26.60;84.70;;;;;;5046491;28;20029;-51
2021/12/10 09:02:35;;;;;;;8.80;5.45;;;26.60;84.60;;;;;;5046164;28;20081;-49
2021/12/10 09:05:01;;;;;;;10.65;5.10;;;26.60;84.60;;;;;;5046237;28;20101;-48
2021/12/10 09:07:28;;;;;;;9.77;5.13;;;26.60;84.60;;;;;;5046299;28;20310;-46
2021/12/10 09:09:54;;;;;;;7.10;5.18;;;26.60;84.60;;;;;;5046102;28;20033;-46
2021/12/10 09:12:25;;;;;;;8.65;5.20;;;26.60;84.40;;;;;;5046260;28;20080;-50
2021/12/10 09:14:54;;;;;;;8.60;5.35;;;26.60;84.20;;;;;;5046127;28;20099;-48
2021/12/10 09:17:25;;;;;;;6.80;4.90;;;26.60;84.00;;;;;;5045867;28;20025;-46
2021/12/10 09:19:55;;;;;;;7.35;5.07;;;26.60;83.70;;;;;;5046248;28;20041;-47
2021/12/10 09:22:23;;;;;;;7.25;5.25;;;26.60;83.70;;;;;;5045954;28;20045;-46
2021/12/10 09:24:54;;;;;;;8.30;4.72;;;26.60;83.50;;;;;;5045759;28;20022;-51
2021/12/10 09:27:21;;;;;;;7.38;4.20;;;26.60;83.40;;;;;;5045052;28;20040;-46
2021/12/10 09:29:52;;;;;;;6.32;4.63;;;26.60;83.30;;;;;;5045754;28;20097;-47
2021/12/10 09:32:20;;;;;;;8.82;4.78;;;26.60;83.20;;;;;;5045734;28;20057;-51
2021/12/10 09:34:48;;;;;;;9.70;4.95;;;26.60;83.20;;;;;;5045761;28;20281;-48
2021/12/10 09:37:16;;;;;;;6.60;4.50;;;26.60;83.10;;;;;;5045554;28;20029;-52
2021/12/10 09:39:44;;;;;;;9.10;4.50;;;26.60;83.10;;;;;;5045624;28;20088;-50
2021/12/10 09:42:11;;;;;;;6.43;4.35;;;26.60;83.00;;;;;;5045539;28;20089;-46
2021/12/10 09:44:38;;;;;;;7.00;4.57;;;26.60;82.90;;;;;;5045290;28;20017;-52
2021/12/10 09:47:09;;;;;;;6.93;4.43;;;26.60;82.80;;;;;;5045350;28;20344;-49
2021/12/10 09:49:36;;;;;;;8.33;4.80;;;26.60;82.70;;;;;;5045440;28;20017;-50
2021/12/10 09:52:06;;;;;;;6.72;4.40;;;26.60;82.50;;;;;;5045076;28;20048;-48
2021/12/10 09:54:35;;;;;;;5.90;4.65;;;26.60;82.50;;;;;;5045241;28;20020;-53
2021/12/10 09:57:12;;;;;;;5.70;4.53;;;26.60;82.30;;;;;;5045295;28;20318;-48
2021/12/10 09:59:41;;;;;;;6.72;4.32;;;26.60;82.30;;;;;;5045439;28;20025;-47
2021/12/10 10:02:09;;;;;;;13.02;4.45;;;26.60;82.20;;;;;;5045175;28;20020;-53
2021/12/10 10:04:37;;;;;;;6.13;4.60;;;26.60;82.20;;;;;;5045077;28;20023;-49
2021/12/10 10:07:14;;;;;;;6.55;4.72;;;26.60;82.10;;;;;;5045057;28;20093;-47
2021/12/10 10:09:43;;;;;;;7.47;4.07;;;26.60;82.20;;;;;;5044995;28;20021;-46
2021/12/10 10:12:14;;;;;;;6.57;4.05;;;26.60;82.20;;;;;;5045120;28;20210;-50
2021/12/10 10:14:42;;;;;;;7.15;3.92;;;26.60;82.10;;;;;;5044867;28;20085;-52
2021/12/10 10:17:11;;;;;;;8.15;4.68;;;26.60;82.10;;;;;;5044898;28;20021;-53
2021/12/10 10:19:39;;;;;;;10.18;4.78;;;26.60;82.10;;;;;;5044678;28;20013;-46
2021/12/10 10:22:10;;;;;;;8.60;4.50;;;26.60;82.10;;;;;;5045043;28;20306;-46
2021/12/10 10:24:37;;;;;;;7.90;3.95;;;26.60;82.10;;;;;;5044837;28;20179;-49
2021/12/10 10:27:09;;;;;;;8.32;4.40;;;26.60;82.10;;;;;;5044731;28;20017;-47
2021/12/10 10:29:39;;;;;;;9.85;4.88;;;26.60;81.90;;;;;;5044677;28;20044;-47
2021/12/10 10:32:13;;;;;;;6.65;4.45;;;26.60;82.10;;;;;;5044509;28;20028;-45
2021/12/10 10:34:50;;;;;;;7.47;4.45;;;26.60;82.00;;;;;;5044495;28;20309;-44
2021/12/10 10:37:17;;;;;;;7.78;4.82;;;26.60;82.10;;;;;;5044500;28;20032;-45
2021/12/10 10:39:44;;;;;;;5.15;4.30;;;26.60;82.00;;;;;;5044486;28;20100;-47
2021/12/10 10:42:24;;;;;;;8.00;4.80;;;26.60;82.10;;;;;;5044386;28;20079;-48
2021/12/10 10:44:52;;;;;;;7.43;4.72;;;26.60;82.20;;;;;;5044149;28;20309;-48
2021/12/10 10:47:22;;;;;;;6.88;4.60;;;26.60;82.20;;;;;;5044288;28;20021;-55
2021/12/10 10:49:52;;;;;;;8.68;5.30;;;26.60;82.40;;;;;;5044286;28;20035;-53
2021/12/10 10:52:29;;;;;;;8.00;5.25;;;26.60;82.70;;;;;;5044197;28;20049;-45
2021/12/10 10:55:25;;;;;;;7.68;5.10;;;26.60;82.90;;;;;;5044257;28;20026;-46
2021/12/10 10:57:56;;;;;;;9.88;5.20;;;26.60;83.20;;;;;;5044222;28;20025;-51
2021/12/10 11:00:33;;;;;;;8.43;5.47;;;26.60;83.30;;;;;;5044275;28;20032;-48
2021/12/10 11:03:09;;;;;;;9.88;6.15;;;26.50;83.50;;;;;;5044148;28;20040;-50
2021/12/10 11:05:44;;;;;;;11.32;5.35;;;26.50;83.80;;;;;;5037734;28;20033;-46
2021/12/10 11:08:13;;;;;;;12.65;5.72;;;26.50;83.80;;;;;;5043940;28;20045;-46
2021/12/10 11:30:18;;;;;;;57.88;10.35;;;26.30;83.70;;;;;;5122033;27;20474;-50
2021/12/10 11:33:08;;;;;;;38.08;9.00;;;26.30;84.60;;;;;;5121175;28;20028;-46
2021/12/10 11:35:39;;;;;;;27.75;7.85;;;26.20;84.50;;;;;;5121829;28;20342;-49
2021/12/10 11:38:16;;;;;;;21.88;7.80;;;26.30;84.60;;;;;;5121423;28;20019;-52
2021/12/10 11:41:00;;;;;;;22.48;7.82;;;26.30;84.60;;;;;;5118984;28;20055;-50
2021/12/10 11:49:02;;;;;;;21.92;8.48;;;26.50;85.00;;;;;;5120239;28;20052;-50
2021/12/10 11:51:35;;;;;;;18.08;8.40;;;26.50;85.20;;;;;;5114879;28;20026;-48
2021/12/10 11:54:06;;;;;;;19.08;7.57;;;26.60;85.40;;;;;;5114839;28;20024;-50
2021/12/10 11:56:44;;;;;;;19.73;7.82;;;26.60;85.90;;;;;;5116181;28;20079;-50
2021/12/10 11:59:21;;;;;;;15.85;7.68;;;26.60;86.00;;;;;;5099522;28;20201;-50
2021/12/10 12:01:55;;;;;;;16.15;7.90;;;26.60;85.90;;;;;;5103392;28;20028;-54
2021/12/10 12:04:43;;;;;;;12.43;8.10;;;26.60;86.00;;;;;;5100699;28;20347;-51
2021/12/10 12:07:40;;;;;;;16.38;7.97;;;26.60;86.40;;;;;;5100739;28;20028;-48
2021/12/10 12:10:23;;;;;;;16.92;8.50;;;26.70;87.00;;;;;;5099513;28;20040;-48
2021/12/10 12:12:50;;;;;;;14.18;7.70;;;26.60;86.90;;;;;;5100668;28;20024;-50
2021/12/10 12:15:28;;;;;;;16.23;8.20;;;26.70;87.20;;;;;;5100493;28;20027;-49
2021/12/10 12:18:06;;;;;;;14.88;7.82;;;26.70;87.10;;;;;;5100341;28;20016;-52
2021/12/10 12:20:58;;;;;;;16.52;7.60;;;26.70;87.40;;;;;;5100343;28;20025;-55
2021/12/10 12:26:36;;;;;;;16.90;8.82;;;26.80;87.00;;;;;;5078407;28;20036;-53
2021/12/10 12:29:06;;;;;;;14.48;7.63;;;26.70;87.00;;;;;;5111661;28;20042;-53
2021/12/10 12:31:51;;;;;;;14.48;7.50;;;26.80;87.00;;;;;;5120783;28;20220;-52
2021/12/10 12:34:19;;;;;;;22.95;8.48;;;26.80;87.00;;;;;;5120882;28;20019;-52
2021/12/10 12:36:52;;;;;;;28.38;9.13;;;26.80;86.90;;;;;;5120850;28;20028;-58
2021/12/10 12:39:30;;;;;;;29.00;9.32;;;26.80;87.10;;;;;;5118940;28;20244;-56
2021/12/10 12:42:01;;;;;;;24.70;8.32;;;26.80;87.30;;;;;;5106202;28;20016;-51
2021/12/10 12:44:30;;;;;;;28.20;8.57;;;26.80;87.20;;;;;;5086646;28;20016;-50
2021/12/10 12:47:16;;;;;;;28.23;9.02;;;26.80;87.40;;;;;;5086501;28;20041;-49
2021/12/10 12:49:48;;;;;;;24.90;8.40;;;26.80;87.60;;;;;;5086233;28;20021;-51
2021/12/10 12:52:19;;;;;;;17.80;7.97;;;26.80;87.60;;;;;;5085439;28;20039;-50
2021/12/10 12:55:11;;;;;;;20.58;7.75;;;26.80;87.90;;;;;;5086863;28;20024;-48
2021/12/10 12:57:56;;;;;;;12.27;7.05;;;26.80;87.10;;;;;;5086297;28;20363;-49
2021/12/10 13:00:36;;;;;;;14.50;7.05;;;26.80;87.00;;;;;;5086161;28;20021;-50
2021/12/10 13:03:12;;;;;;;13.57;7.10;;;26.80;86.90;;;;;;5086180;28;20020;-48
2021/12/10 13:05:44;;;;;;;14.13;7.82;;;26.80;86.90;;;;;;5086190;28;20107;-49
2021/12/10 13:08:15;;;;;;;12.20;7.38;;;26.80;86.80;;;;;;5086301;28;20182;-48
2021/12/10 13:10:49;;;;;;;14.38;7.03;;;26.90;86.80;;;;;;5086025;28;20020;-51
2021/12/10 13:13:29;;;;;;;13.63;6.70;;;26.90;86.70;;;;;;5086072;28;20091;-53
2021/12/10 13:15:56;;;;;;;13.32;6.95;;;26.90;86.50;;;;;;5085927;28;20248;-47
2021/12/10 13:18:24;;;;;;;13.05;7.03;;;26.90;86.40;;;;;;5084729;28;20059;-51
2021/12/10 13:20:53;;;;;;;11.27;6.68;;;26.90;86.40;;;;;;5086013;28;20023;-53
2021/12/10 13:23:24;;;;;;;9.73;6.03;;;26.90;86.50;;;;;;5085735;28;20028;-52
2021/12/10 13:25:55;;;;;;;9.82;6.60;;;26.90;86.30;;;;;;5087614;28;20017;-49
2021/12/10 13:28:23;;;;;;;14.38;7.63;;;26.90;86.20;;;;;;5103577;28;20070;-50
2021/12/10 13:30:57;;;;;;;16.55;7.28;;;27.00;86.10;;;;;;5092605;28;20340;-48
2021/12/10 13:33:26;;;;;;;8.73;6.40;;;27.00;86.10;;;;;;5103648;28;20070;-50
2021/12/10 13:35:55;;;;;;;14.43;6.70;;;27.00;85.90;;;;;;5086181;28;20020;-53